Time;durP1;ratioP1;P1;durP2;ratioP2;P2;SDS_P1;SDS_P2;PMS_P1;PMS_P2;Temp;Humidity;BMP_temperature;BMP_pressure;BME280_temperature;BME280_humidity;BME280_pressure;Samples;Min_cycle;Max_cycle;Signal;HPM_P1;HPM_P2
2022/03/23 00:01:00;;;;;;;;;53.75;43.00;;;;;;;;5002800;28;51394;-68
2022/03/23 00:03:25;;;;;;;;;54.75;45.00;;;;;;;;4995942;28;51181;-69
2022/03/23 00:05:50;;;;;;;;;54.25;44.25;;;;;;;;4999495;28;53123;-68
2022/03/23 00:08:16;;;;;;;;;49.50;43.00;;;;;;;;5010168;28;52748;-68
2022/03/23 00:10:41;;;;;;;;;57.75;45.75;;;;;;;;5003152;28;51574;-68
2022/03/23 00:13:06;;;;;;;;;51.75;42.75;;;;;;;;4997464;28;51396;-69
2022/03/23 00:15:32;;;;;;;;;49.00;39.50;;;;;;;;4998764;28;51965;-69
2022/03/23 00:17:57;;;;;;;;;43.75;36.50;;;;;;;;4997719;28;51435;-69
2022/03/23 00:20:24;;;;;;;;;54.00;44.25;;;;;;;;5000764;28;51336;-69
2022/03/23 00:22:50;;;;;;;;;52.25;43.00;;;;;;;;5018191;28;52297;-69
2022/03/23 00:25:15;;;;;;;;;51.25;43.25;;;;;;;;5002631;28;51159;-69
2022/03/23 00:27:41;;;;;;;;;52.75;43.25;;;;;;;;5005768;28;51157;-70
2022/03/23 00:30:06;;;;;;;;;50.00;41.50;;;;;;;;5010206;28;51307;-69
2022/03/23 00:32:32;;;;;;;;;48.50;38.75;;;;;;;;5013337;28;51314;-69
2022/03/23 00:34:57;;;;;;;;;50.50;41.00;;;;;;;;5009876;28;51858;-70
2022/03/23 00:37:23;;;;;;;;;49.25;41.50;;;;;;;;5013909;28;51084;-69
2022/03/23 00:39:49;;;;;;;;;48.50;38.50;;;;;;;;5013009;28;51137;-69
2022/03/23 00:42:14;;;;;;;;;50.25;41.25;;;;;;;;5009527;28;51231;-69
2022/03/23 00:44:39;;;;;;;;;49.75;42.25;;;;;;;;5016329;28;53848;-69
2022/03/23 00:47:05;;;;;;;;;51.00;41.75;;;;;;;;5010412;28;51043;-69
2022/03/23 00:49:30;;;;;;;;;44.50;36.50;;;;;;;;5017271;28;51149;-69
2022/03/23 00:51:56;;;;;;;;;45.25;39.00;;;;;;;;5000327;28;55093;-69
2022/03/23 00:54:21;;;;;;;;;48.25;39.50;;;;;;;;5006666;28;52577;-69
2022/03/23 00:56:48;;;;;;;;;1.00;0.00;;;;;;;;5001401;28;52413;-69
2022/03/23 00:59:13;;;;;;;;;48.25;40.00;;;;;;;;5011614;28;51411;-69
2022/03/23 01:01:38;;;;;;;;;41.25;36.50;;;;;;;;5006816;28;51189;-69
2022/03/23 01:04:04;;;;;;;;;47.25;39.75;;;;;;;;4996441;28;52108;-68
2022/03/23 01:06:29;;;;;;;;;48.75;40.00;;;;;;;;5003069;28;51214;-69
2022/03/23 01:08:54;;;;;;;;;43.25;37.50;;;;;;;;5002252;28;51105;-69
2022/03/23 01:11:19;;;;;;;;;49.25;39.75;;;;;;;;5000173;28;51336;-69
2022/03/23 01:13:45;;;;;;;;;49.25;39.50;;;;;;;;5015167;28;52168;-70
2022/03/23 01:16:10;;;;;;;;;44.50;36.25;;;;;;;;4999941;28;51377;-70
2022/03/23 01:18:35;;;;;;;;;43.00;36.25;;;;;;;;5005158;28;51509;-70
2022/03/23 01:21:03;;;;;;;;;46.00;36.25;;;;;;;;4998044;28;51797;-69
2022/03/23 01:23:29;;;;;;;;;47.75;38.50;;;;;;;;5010850;28;51190;-69
2022/03/23 01:25:54;;;;;;;;;39.25;33.00;;;;;;;;5001498;28;51648;-69
2022/03/23 01:28:19;;;;;;;;;44.50;37.25;;;;;;;;4996480;28;51227;-69
2022/03/23 01:30:46;;;;;;;;;48.75;37.75;;;;;;;;4998813;28;51503;-69
2022/03/23 01:33:11;;;;;;;;;49.00;40.50;;;;;;;;4996302;28;52146;-69
2022/03/23 01:35:36;;;;;;;;;44.75;38.75;;;;;;;;4996386;28;51751;-71
2022/03/23 01:38:01;;;;;;;;;45.50;37.00;;;;;;;;4999987;28;51322;-71
2022/03/23 01:40:28;;;;;;;;;43.00;38.25;;;;;;;;4997105;28;51486;-70
2022/03/23 01:42:53;;;;;;;;;36.00;34.00;;;;;;;;4995652;28;52825;-70
2022/03/23 01:45:19;;;;;;;;;36.50;33.25;;;;;;;;4996112;28;51319;-70
2022/03/23 01:47:44;;;;;;;;;47.75;39.00;;;;;;;;4998463;28;52696;-70
2022/03/23 01:50:09;;;;;;;;;40.75;36.50;;;;;;;;4997398;28;51550;-70
2022/03/23 01:52:35;;;;;;;;;44.00;37.25;;;;;;;;4997863;28;51904;-70
2022/03/23 01:55:02;;;;;;;;;39.00;35.50;;;;;;;;5001467;28;52302;-70
2022/03/23 01:57:28;;;;;;;;;39.50;35.75;;;;;;;;4994992;28;51333;-70
2022/03/23 01:59:53;;;;;;;;;49.00;40.50;;;;;;;;4993212;28;51214;-70
2022/03/23 02:02:19;;;;;;;;;41.25;35.00;;;;;;;;4995294;28;52030;-69
2022/03/23 02:04:45;;;;;;;;;37.50;34.00;;;;;;;;4998777;28;51210;-68
2022/03/23 02:07:10;;;;;;;;;48.00;37.25;;;;;;;;4997373;28;51337;-70
2022/03/23 02:09:35;;;;;;;;;42.25;37.75;;;;;;;;5001082;28;51779;-69
2022/03/23 02:12:01;;;;;;;;;38.75;35.00;;;;;;;;5011792;28;52398;-69
2022/03/23 02:14:27;;;;;;;;;42.75;36.25;;;;;;;;4999762;28;51198;-69
2022/03/23 02:16:52;;;;;;;;;37.25;33.00;;;;;;;;4994725;28;52919;-69
2022/03/23 02:19:18;;;;;;;;;41.25;35.00;;;;;;;;4998547;28;52714;-68
2022/03/23 02:21:44;;;;;;;;;45.75;35.50;;;;;;;;4995246;28;54626;-68
2022/03/23 02:24:10;;;;;;;;;40.00;35.75;;;;;;;;5000529;28;51731;-68
2022/03/23 02:26:37;;;;;;;;;42.75;35.00;;;;;;;;4998162;28;52103;-68
2022/03/23 02:29:02;;;;;;;;;32.50;30.50;;;;;;;;5009938;28;51189;-68
2022/03/23 02:31:28;;;;;;;;;45.50;35.75;;;;;;;;5010552;28;52331;-68
2022/03/23 02:33:53;;;;;;;;;42.25;36.50;;;;;;;;5010551;28;51117;-68
2022/03/23 02:36:18;;;;;;;;;41.25;36.50;;;;;;;;5000108;28;51621;-68
2022/03/23 02:38:43;;;;;;;;;35.50;33.50;;;;;;;;5000154;28;51103;-67
2022/03/23 02:41:09;;;;;;;;;34.75;30.00;;;;;;;;5008413;28;52833;-67
2022/03/23 02:43:34;;;;;;;;;40.25;34.50;;;;;;;;5005231;28;53355;-67
2022/03/23 02:45:59;;;;;;;;;41.00;36.00;;;;;;;;5003858;28;51089;-67
2022/03/23 02:48:25;;;;;;;;;46.50;36.00;;;;;;;;5000238;28;51130;-67
2022/03/23 02:50:50;;;;;;;;;32.25;30.50;;;;;;;;4999709;28;51111;-68
2022/03/23 03:01:54;;;;;;;;;38.00;34.75;;;;;;;;5004358;28;51567;-67
2022/03/23 03:04:23;;;;;;;;;33.75;30.50;;;;;;;;5000667;28;51226;-69
2022/03/23 03:06:48;;;;;;;;;38.75;34.00;;;;;;;;5002930;28;51217;-69
2022/03/23 03:09:15;;;;;;;;;37.50;35.50;;;;;;;;5009411;28;51419;-68
2022/03/23 03:11:42;;;;;;;;;38.75;35.25;;;;;;;;4996407;28;51153;-69
2022/03/23 03:14:07;;;;;;;;;42.25;35.50;;;;;;;;5005028;28;51081;-69
2022/03/23 03:16:33;;;;;;;;;32.50;30.75;;;;;;;;4995642;28;51379;-69
2022/03/23 03:18:58;;;;;;;;;41.00;34.00;;;;;;;;5001546;28;51402;-69
2022/03/23 03:21:23;;;;;;;;;41.00;36.00;;;;;;;;5003771;28;52728;-70
2022/03/23 03:23:48;;;;;;;;;36.50;34.50;;;;;;;;5008354;28;51203;-69
2022/03/23 03:26:15;;;;;;;;;38.00;34.00;;;;;;;;4998958;28;51243;-69
2022/03/23 03:28:41;;;;;;;;;36.00;34.50;;;;;;;;5010399;28;51136;-69
2022/03/23 03:31:07;;;;;;;;;30.75;28.00;;;;;;;;5013819;28;53148;-69
2022/03/23 03:33:33;;;;;;;;;33.25;32.50;;;;;;;;4991540;28;51218;-69
2022/03/23 03:35:59;;;;;;;;;38.75;35.50;;;;;;;;5007165;28;51151;-70
2022/03/23 03:38:25;;;;;;;;;39.50;35.75;;;;;;;;5008793;28;52907;-68
2022/03/23 03:40:50;;;;;;;;;33.75;33.25;;;;;;;;5007650;28;51889;-69
2022/03/23 03:43:16;;;;;;;;;36.25;34.25;;;;;;;;5010105;28;51335;-69
2022/03/23 03:45:41;;;;;;;;;33.50;33.00;;;;;;;;4994753;28;51169;-68
2022/03/23 03:48:07;;;;;;;;;37.25;34.00;;;;;;;;5001079;28;51448;-70
2022/03/23 03:50:32;;;;;;;;;37.50;32.25;;;;;;;;4993645;28;51264;-70
2022/03/23 03:52:57;;;;;;;;;33.75;32.25;;;;;;;;5000579;28;51384;-70
2022/03/23 03:55:22;;;;;;;;;35.75;33.75;;;;;;;;4996686;28;51217;-70
2022/03/23 03:57:49;;;;;;;;;33.00;31.75;;;;;;;;4999243;28;51276;-70
2022/03/23 04:00:15;;;;;;;;;38.00;33.50;;;;;;;;4997798;28;52585;-70
2022/03/23 04:02:40;;;;;;;;;37.00;34.25;;;;;;;;4996298;28;51159;-69
2022/03/23 04:05:05;;;;;;;;;32.25;31.25;;;;;;;;5007552;28;51674;-69
2022/03/23 04:07:33;;;;;;;;;32.75;31.50;;;;;;;;5001352;28;51044;-69
2022/03/23 04:10:05;;;;;;;;;34.00;32.25;;;;;;;;5005320;28;52368;-69
2022/03/23 04:12:31;;;;;;;;;33.50;30.25;;;;;;;;4998857;28;51262;-69
2022/03/23 04:14:56;;;;;;;;;32.00;29.75;;;;;;;;5010932;28;51177;-69
2022/03/23 04:17:21;;;;;;;;;37.50;32.50;;;;;;;;5008978;28;51272;-70
2022/03/23 04:19:46;;;;;;;;;30.75;29.75;;;;;;;;4997399;28;51153;-70
2022/03/23 04:22:12;;;;;;;;;34.50;33.00;;;;;;;;5010722;28;50961;-70
2022/03/23 04:24:37;;;;;;;;;39.50;34.75;;;;;;;;5007194;28;51206;-71
2022/03/23 04:27:03;;;;;;;;;33.00;32.25;;;;;;;;4997315;28;52666;-69
2022/03/23 04:29:28;;;;;;;;;33.25;31.00;;;;;;;;5008588;28;51763;-69
2022/03/23 04:31:53;;;;;;;;;38.50;33.00;;;;;;;;5007474;28;51012;-68
2022/03/23 04:34:19;;;;;;;;;33.00;30.25;;;;;;;;5003067;28;51905;-69
2022/03/23 04:36:45;;;;;;;;;32.00;29.50;;;;;;;;5010288;28;53298;-69
2022/03/23 04:39:10;;;;;;;;;33.00;30.25;;;;;;;;5009747;28;51883;-69
2022/03/23 04:41:35;;;;;;;;;32.00;29.75;;;;;;;;4999800;28;51237;-69
2022/03/23 04:44:00;;;;;;;;;36.50;29.50;;;;;;;;5019428;28;51038;-68
2022/03/23 04:46:26;;;;;;;;;31.50;27.50;;;;;;;;5002052;28;51804;-69
2022/03/23 04:48:51;;;;;;;;;28.00;26.50;;;;;;;;5001955;28;52044;-69
2022/03/23 04:51:16;;;;;;;;;25.00;23.50;;;;;;;;5000638;28;51529;-69
2022/03/23 04:53:41;;;;;;;;;34.25;31.75;;;;;;;;4999489;28;52866;-69
2022/03/23 04:56:07;;;;;;;;;33.50;30.50;;;;;;;;5002171;28;51763;-69
2022/03/23 04:58:34;;;;;;;;;38.25;35.25;;;;;;;;4997101;28;51988;-69
2022/03/23 05:00:59;;;;;;;;;29.25;26.00;;;;;;;;5008135;28;51190;-69
2022/03/23 05:03:25;;;;;;;;;32.75;28.75;;;;;;;;4999848;28;51266;-70
2022/03/23 05:05:52;;;;;;;;;26.75;25.75;;;;;;;;5016193;28;51390;-70
2022/03/23 05:08:17;;;;;;;;;33.25;31.00;;;;;;;;5005858;28;52741;-69
2022/03/23 05:10:42;;;;;;;;;32.50;30.00;;;;;;;;5007039;28;51234;-69
2022/03/23 05:13:08;;;;;;;;;28.00;26.75;;;;;;;;5003906;28;51583;-70
2022/03/23 05:15:33;;;;;;;;;32.25;29.00;;;;;;;;5002838;28;51132;-69
2022/03/23 05:17:58;;;;;;;;;32.25;29.50;;;;;;;;5004827;28;51570;-69
2022/03/23 05:20:24;;;;;;;;;30.50;27.75;;;;;;;;5003997;28;51068;-69
2022/03/23 05:22:50;;;;;;;;;31.75;30.00;;;;;;;;5009611;28;51238;-69
2022/03/23 05:25:15;;;;;;;;;30.50;27.50;;;;;;;;5011933;28;51129;-69
2022/03/23 05:27:41;;;;;;;;;32.75;31.50;;;;;;;;5003379;28;52573;-69
2022/03/23 05:30:08;;;;;;;;;32.00;32.00;;;;;;;;5011508;28;51175;-70
2022/03/23 05:32:34;;;;;;;;;36.50;33.75;;;;;;;;5010453;28;51058;-70
2022/03/23 05:34:59;;;;;;;;;31.50;29.25;;;;;;;;5035149;28;51731;-70
2022/03/23 05:37:24;;;;;;;;;27.75;27.50;;;;;;;;5001797;28;51304;-70
2022/03/23 05:39:50;;;;;;;;;32.25;30.50;;;;;;;;4999072;28;51194;-70
2022/03/23 05:42:15;;;;;;;;;35.75;33.75;;;;;;;;5013078;28;50990;-70
2022/03/23 05:44:40;;;;;;;;;30.75;29.25;;;;;;;;5012251;28;51048;-68
2022/03/23 05:47:06;;;;;;;;;35.00;31.75;;;;;;;;4997718;28;51111;-69
2022/03/23 05:49:31;;;;;;;;;30.75;29.75;;;;;;;;5004223;28;51444;-68
2022/03/23 05:51:57;;;;;;;;;36.25;32.50;;;;;;;;5007022;28;51226;-69
2022/03/23 05:54:23;;;;;;;;;33.00;31.25;;;;;;;;5011282;28;51116;-69
2022/03/23 05:56:48;;;;;;;;;40.00;34.50;;;;;;;;5013466;28;52182;-69
2022/03/23 05:59:14;;;;;;;;;32.50;30.50;;;;;;;;5011676;28;51140;-69
2022/03/23 06:01:39;;;;;;;;;36.75;33.75;;;;;;;;4996294;28;51287;-69
2022/03/23 06:04:04;;;;;;;;;30.75;27.75;;;;;;;;5008465;28;51344;-69
2022/03/23 06:06:29;;;;;;;;;44.25;38.25;;;;;;;;5000198;28;52189;-69
2022/03/23 06:08:54;;;;;;;;;46.75;37.50;;;;;;;;5010311;28;51172;-69
2022/03/23 06:11:20;;;;;;;;;31.25;30.00;;;;;;;;5007003;28;51294;-70
2022/03/23 06:13:45;;;;;;;;;29.75;28.75;;;;;;;;4992748;28;51270;-69
2022/03/23 06:16:11;;;;;;;;;34.75;33.75;;;;;;;;4995772;28;52229;-71
2022/03/23 06:18:36;;;;;;;;;30.25;27.50;;;;;;;;4999604;28;51231;-69
2022/03/23 06:21:01;;;;;;;;;31.25;30.00;;;;;;;;5002238;28;51214;-69
2022/03/23 06:23:27;;;;;;;;;35.50;33.50;;;;;;;;5001315;28;51287;-69
2022/03/23 06:25:52;;;;;;;;;39.50;34.25;;;;;;;;5000416;28;52143;-70
2022/03/23 06:28:17;;;;;;;;;42.00;37.00;;;;;;;;4993095;28;51434;-69
2022/03/23 06:30:43;;;;;;;;;41.25;35.00;;;;;;;;4999120;28;51259;-69
2022/03/23 06:33:08;;;;;;;;;38.00;34.00;;;;;;;;4996738;28;51182;-63
2022/03/23 06:35:33;;;;;;;;;34.75;31.00;;;;;;;;5006145;28;51214;-68
2022/03/23 06:37:59;;;;;;;;;35.50;35.00;;;;;;;;4995548;28;51593;-65
2022/03/23 06:40:24;;;;;;;;;41.00;36.50;;;;;;;;4998300;28;52104;-65
2022/03/23 06:42:49;;;;;;;;;41.25;36.75;;;;;;;;4997599;28;51927;-65
2022/03/23 06:45:15;;;;;;;;;36.75;33.25;;;;;;;;4995053;28;51878;-67
2022/03/23 06:47:40;;;;;;;;;34.25;32.00;;;;;;;;4996180;28;51266;-65
2022/03/23 06:50:07;;;;;;;;;34.50;31.25;;;;;;;;4998380;28;51025;-66
2022/03/23 06:52:32;;;;;;;;;35.25;34.50;;;;;;;;4998110;28;51400;-66
2022/03/23 06:54:58;;;;;;;;;34.00;32.25;;;;;;;;5004304;28;51894;-66
2022/03/23 06:57:23;;;;;;;;;36.50;35.00;;;;;;;;5005701;28;51143;-67
2022/03/23 06:59:48;;;;;;;;;41.50;37.25;;;;;;;;5008467;28;51209;-68
2022/03/23 07:02:15;;;;;;;;;40.25;35.00;;;;;;;;4999732;28;51328;-68
2022/03/23 07:04:40;;;;;;;;;34.75;32.75;;;;;;;;4996196;28;51392;-68
2022/03/23 07:07:06;;;;;;;;;41.25;36.00;;;;;;;;5008716;28;50992;-68
2022/03/23 07:09:31;;;;;;;;;36.75;34.50;;;;;;;;5004520;28;51210;-69
2022/03/23 07:11:57;;;;;;;;;38.00;34.00;;;;;;;;4995691;28;51029;-68
2022/03/23 07:14:23;;;;;;;;;36.75;33.00;;;;;;;;5009330;28;50867;-69
2022/03/23 07:16:48;;;;;;;;;40.75;34.75;;;;;;;;5008125;28;51032;-68
2022/03/23 07:19:13;;;;;;;;;40.50;35.75;;;;;;;;5010675;28;50870;-69
2022/03/23 07:21:39;;;;;;;;;39.00;33.00;;;;;;;;5006692;28;50861;-69
2022/03/23 07:24:05;;;;;;;;;35.50;32.50;;;;;;;;5010275;28;51032;-70
2022/03/23 07:26:30;;;;;;;;;41.00;36.50;;;;;;;;5005267;28;51443;-69
2022/03/23 07:28:56;;;;;;;;;37.50;34.00;;;;;;;;5003848;28;51097;-69
2022/03/23 07:31:22;;;;;;;;;31.50;30.00;;;;;;;;5010824;28;51110;-69
2022/03/23 07:33:47;;;;;;;;;37.25;32.00;;;;;;;;5006662;28;52085;-69
2022/03/23 07:36:12;;;;;;;;;34.25;31.75;;;;;;;;4997462;28;51653;-69
2022/03/23 07:38:38;;;;;;;;;40.25;34.50;;;;;;;;5029206;28;51341;-70
2022/03/23 07:41:04;;;;;;;;;33.00;30.50;;;;;;;;4992556;28;51232;-69
2022/03/23 07:43:29;;;;;;;;;39.50;33.25;;;;;;;;4994088;28;51899;-69
2022/03/23 07:45:54;;;;;;;;;36.00;32.00;;;;;;;;4992253;28;51742;-69
2022/03/23 07:48:22;;;;;;;;;39.25;31.75;;;;;;;;5010811;28;51628;-70
2022/03/23 07:50:47;;;;;;;;;38.00;33.75;;;;;;;;5011875;28;51075;-68
2022/03/23 07:53:13;;;;;;;;;37.25;32.50;;;;;;;;5007558;28;51122;-70
2022/03/23 07:55:38;;;;;;;;;39.50;35.25;;;;;;;;5011491;28;50937;-68
2022/03/23 07:58:03;;;;;;;;;35.50;31.50;;;;;;;;5000365;28;51092;-70
2022/03/23 08:00:29;;;;;;;;;37.25;33.25;;;;;;;;5013017;28;51309;-69
2022/03/23 08:02:54;;;;;;;;;36.00;32.50;;;;;;;;4999788;28;51948;-71
2022/03/23 08:05:19;;;;;;;;;39.25;34.00;;;;;;;;5015073;28;50943;-70
2022/03/23 08:07:45;;;;;;;;;37.75;32.00;;;;;;;;5011968;28;50851;-70
2022/03/23 08:10:10;;;;;;;;;13.00;12.00;;;;;;;;5036774;28;50993;-69
2022/03/23 08:12:35;;;;;;;;;40.00;34.50;;;;;;;;5000281;28;51759;-69
2022/03/23 08:15:01;;;;;;;;;39.75;34.00;;;;;;;;5011968;28;51046;-69
2022/03/23 08:17:26;;;;;;;;;37.75;32.25;;;;;;;;5009034;28;51382;-69
2022/03/23 08:22:35;;;;;;;;;33.50;31.50;;;;;;;;5002264;28;51735;-69
2022/03/23 08:25:01;;;;;;;;;41.25;34.50;;;;;;;;5002695;28;51107;-70
2022/03/23 08:27:26;;;;;;;;;37.00;33.50;;;;;;;;5001210;28;51167;-69
2022/03/23 08:29:52;;;;;;;;;36.75;33.75;;;;;;;;5007189;28;51235;-70
2022/03/23 08:32:17;;;;;;;;;37.50;32.75;;;;;;;;5000099;28;51798;-70
2022/03/23 08:34:42;;;;;;;;;36.25;32.50;;;;;;;;5011450;28;51069;-70
2022/03/23 08:37:07;;;;;;;;;30.50;29.50;;;;;;;;4997834;28;51093;-71
2022/03/23 08:39:33;;;;;;;;;29.75;28.00;;;;;;;;5008223;28;51180;-70
2022/03/23 08:41:58;;;;;;;;;32.25;30.50;;;;;;;;5002886;28;52635;-69
2022/03/23 08:44:23;;;;;;;;;31.00;29.25;;;;;;;;5004100;28;51006;-70
2022/03/23 08:46:48;;;;;;;;;31.50;30.50;;;;;;;;5003350;28;51684;-69
2022/03/23 08:49:14;;;;;;;;;29.75;28.75;;;;;;;;5002410;28;51277;-70
2022/03/23 08:51:39;;;;;;;;;30.50;29.00;;;;;;;;5000436;28;51782;-70
2022/03/23 08:54:04;;;;;;;;;28.50;26.75;;;;;;;;5004995;28;51164;-70
2022/03/23 08:56:29;;;;;;;;;31.25;29.25;;;;;;;;5011400;28;51481;-70
2022/03/23 08:58:55;;;;;;;;;29.00;28.50;;;;;;;;5005741;28;51150;-68
2022/03/23 09:01:20;;;;;;;;;31.00;28.50;;;;;;;;5010085;28;51732;-69
2022/03/23 09:03:45;;;;;;;;;27.00;26.75;;;;;;;;5007749;28;51359;-69
2022/03/23 09:06:11;;;;;;;;;27.25;26.50;;;;;;;;5012569;28;51583;-70
2022/03/23 09:08:36;;;;;;;;;26.25;25.75;;;;;;;;5014100;28;50930;-70
2022/03/23 09:11:03;;;;;;;;;29.25;28.00;;;;;;;;5012717;28;53108;-70
2022/03/23 09:13:28;;;;;;;;;31.75;29.75;;;;;;;;5014149;28;50823;-69
2022/03/23 09:15:54;;;;;;;;;26.50;26.50;;;;;;;;5012779;28;51029;-70
2022/03/23 09:18:19;;;;;;;;;28.75;27.50;;;;;;;;5014254;28;51006;-69
2022/03/23 09:20:45;;;;;;;;;25.75;24.50;;;;;;;;5007383;28;50855;-70
2022/03/23 09:23:10;;;;;;;;;33.00;30.00;;;;;;;;5008967;28;51288;-69
2022/03/23 09:25:36;;;;;;;;;26.75;26.75;;;;;;;;5013949;28;51023;-71
2022/03/23 09:28:03;;;;;;;;;27.00;25.00;;;;;;;;5013825;28;51171;-72
2022/03/23 09:30:28;;;;;;;;;28.00;26.75;;;;;;;;5013242;28;52017;-70
2022/03/23 09:32:54;;;;;;;;;26.50;26.00;;;;;;;;5010684;28;51115;-70
2022/03/23 09:35:19;;;;;;;;;26.75;26.25;;;;;;;;5013822;28;50967;-70
2022/03/23 09:37:47;;;;;;;;;23.75;22.50;;;;;;;;5010957;28;51222;-70
2022/03/23 09:40:14;;;;;;;;;28.75;27.50;;;;;;;;5013394;28;52127;-70
2022/03/23 09:42:41;;;;;;;;;30.25;28.75;;;;;;;;5013518;28;50997;-70
2022/03/23 09:45:06;;;;;;;;;31.00;30.00;;;;;;;;5014104;28;51114;-69
2022/03/23 09:47:31;;;;;;;;;29.00;27.50;;;;;;;;5030734;28;51267;-70
2022/03/23 09:49:57;;;;;;;;;27.50;27.50;;;;;;;;5008049;28;52585;-69
2022/03/23 09:52:22;;;;;;;;;27.75;27.25;;;;;;;;5013397;28;51062;-69
2022/03/23 09:54:48;;;;;;;;;26.50;24.25;;;;;;;;5013422;28;51027;-70
2022/03/23 09:57:16;;;;;;;;;23.75;22.75;;;;;;;;5011845;28;51061;-69
2022/03/23 09:59:42;;;;;;;;;23.75;22.50;;;;;;;;5012794;28;50968;-70
2022/03/23 10:02:45;;;;;;;;;25.00;24.00;;;;;;;;5008411;28;51057;-70
2022/03/23 10:05:29;;;;;;;;;25.00;25.00;;;;;;;;4971942;28;51209;-70
2022/03/23 10:08:07;;;;;;;;;25.00;24.00;;;;;;;;4968035;28;51439;-70
2022/03/23 10:10:51;;;;;;;;;24.00;23.75;;;;;;;;4991048;28;51717;-69
2022/03/23 10:13:34;;;;;;;;;22.25;21.50;;;;;;;;5012967;28;50950;-69
2022/03/23 10:16:06;;;;;;;;;21.75;20.00;;;;;;;;5011010;28;51151;-70
2022/03/23 10:18:49;;;;;;;;;20.00;19.75;;;;;;;;5011923;28;51086;-70
2022/03/23 10:21:16;;;;;;;;;14.33;14.33;;;;;;;;5011663;28;52030;-69
2022/03/23 10:23:59;;;;;;;;;22.25;19.75;;;;;;;;5012470;28;50947;-69
2022/03/23 10:26:28;;;;;;;;;18.25;17.50;;;;;;;;5012821;28;50810;-71
2022/03/23 10:28:54;;;;;;;;;19.50;18.75;;;;;;;;5010913;28;51394;-69
2022/03/23 10:31:21;;;;;;;;;20.75;20.25;;;;;;;;5011696;28;52042;-70
2022/03/23 10:33:59;;;;;;;;;20.75;18.50;;;;;;;;5011981;28;51110;-70
2022/03/23 10:36:26;;;;;;;;;19.75;19.00;;;;;;;;5011719;28;50922;-70
2022/03/23 10:38:51;;;;;;;;;20.25;20.25;;;;;;;;5010991;28;51422;-69
2022/03/23 10:41:24;;;;;;;;;23.75;22.75;;;;;;;;5012072;28;51092;-70
2022/03/23 10:43:50;;;;;;;;;18.75;18.00;;;;;;;;5012120;28;50895;-71
2022/03/23 10:46:16;;;;;;;;;21.00;19.00;;;;;;;;5012139;28;50938;-69
2022/03/23 10:48:51;;;;;;;;;19.25;19.25;;;;;;;;5010847;28;51329;-70
2022/03/23 10:51:29;;;;;;;;;20.75;19.50;;;;;;;;5011668;28;51117;-70
2022/03/23 10:53:56;;;;;;;;;18.25;17.50;;;;;;;;5011892;28;51101;-70
2022/03/23 10:56:30;;;;;;;;;22.00;21.00;;;;;;;;5012430;28;51198;-70
2022/03/23 10:59:28;;;;;;;;;19.50;19.25;;;;;;;;5009683;28;51326;-70
2022/03/23 11:01:59;;;;;;;;;24.00;22.00;;;;;;;;4980155;28;51091;-70
2022/03/23 11:04:29;;;;;;;;;24.50;23.75;;;;;;;;5011938;28;50952;-70
2022/03/23 11:06:54;;;;;;;;;21.00;20.00;;;;;;;;5012021;28;51061;-70
2022/03/23 11:18:03;;;;;;;;;25.25;22.00;;;;;;;;5006984;28;51113;-70
2022/03/23 11:20:43;;;;;;;;;25.75;25.50;;;;;;;;5032252;28;51230;-70
2022/03/23 11:23:15;;;;;;;;;21.00;20.50;;;;;;;;5011263;28;51103;-70
2022/03/23 11:25:40;;;;;;;;;22.75;22.25;;;;;;;;5011292;28;51073;-70
2022/03/23 11:28:05;;;;;;;;;22.50;21.75;;;;;;;;5011270;28;51074;-69
2022/03/23 11:30:31;;;;;;;;;25.50;25.00;;;;;;;;5011248;28;50902;-70
2022/03/23 11:32:56;;;;;;;;;24.50;24.50;;;;;;;;5013317;28;51298;-69
2022/03/23 11:35:22;;;;;;;;;21.75;21.25;;;;;;;;5014301;28;50995;-69
2022/03/23 11:37:48;;;;;;;;;26.25;25.75;;;;;;;;5002148;28;51085;-69
2022/03/23 11:40:13;;;;;;;;;27.75;27.00;;;;;;;;5014943;28;50855;-70
2022/03/23 11:42:38;;;;;;;;;23.75;22.00;;;;;;;;5014765;28;51144;-69
2022/03/23 11:45:04;;;;;;;;;25.25;24.50;;;;;;;;5014282;28;50913;-69
2022/03/23 11:47:55;;;;;;;;;21.50;21.50;;;;;;;;5013700;28;50969;-70
2022/03/23 11:50:39;;;;;;;;;24.50;19.75;;;;;;;;5014413;28;51226;-71
2022/03/23 11:53:26;;;;;;;;;25.25;22.50;;;;;;;;5014184;28;51005;-70
2022/03/23 11:55:53;;;;;;;;;25.75;25.25;;;;;;;;5014242;28;51301;-71
2022/03/23 11:58:32;;;;;;;;;25.00;24.00;;;;;;;;5014689;28;51155;-70
2022/03/23 12:01:06;;;;;;;;;24.00;23.00;;;;;;;;5011222;28;51170;-70
2022/03/23 12:03:40;;;;;;;;;28.00;27.25;;;;;;;;5011781;28;53174;-70
2022/03/23 12:06:14;;;;;;;;;26.75;25.75;;;;;;;;5014563;28;51179;-70
2022/03/23 12:08:53;;;;;;;;;26.00;24.00;;;;;;;;5014395;28;51116;-69
2022/03/23 12:11:48;;;;;;;;;26.25;25.00;;;;;;;;5014393;28;51079;-70
2022/03/23 12:14:22;;;;;;;;;29.25;28.00;;;;;;;;5012703;28;52186;-70
2022/03/23 12:16:50;;;;;;;;;29.75;27.50;;;;;;;;5013852;28;50815;-69
2022/03/23 12:19:26;;;;;;;;;29.00;27.00;;;;;;;;5014122;28;50962;-70
2022/03/23 12:22:05;;;;;;;;;26.50;23.25;;;;;;;;5012652;28;50968;-70
2022/03/23 12:24:33;;;;;;;;;23.25;23.25;;;;;;;;5013753;28;51996;-70
2022/03/23 12:27:01;;;;;;;;;30.50;26.00;;;;;;;;5013970;28;50944;-69
2022/03/23 12:29:28;;;;;;;;;27.50;25.25;;;;;;;;5013874;28;51139;-71
2022/03/23 12:32:05;;;;;;;;;24.50;23.50;;;;;;;;5014012;28;50882;-70
2022/03/23 12:34:31;;;;;;;;;26.00;25.75;;;;;;;;5013849;28;52315;-70
2022/03/23 12:37:08;;;;;;;;;26.75;25.25;;;;;;;;5013993;28;51208;-69
2022/03/23 12:39:41;;;;;;;;;24.75;24.50;;;;;;;;5009019;28;51003;-69
2022/03/23 12:42:12;;;;;;;;;24.50;24.50;;;;;;;;5010203;28;51157;-69
2022/03/23 12:44:38;;;;;;;;;15.25;15.25;;;;;;;;5013505;28;51660;-70
2022/03/23 12:47:05;;;;;;;;;31.25;28.25;;;;;;;;5013232;28;51107;-70
2022/03/23 12:58:10;;;;;;;;;24.00;22.50;;;;;;;;5012951;28;51299;-69
2022/03/23 13:00:39;;;;;;;;;25.25;23.75;;;;;;;;5013019;28;50879;-69
2022/03/23 13:03:04;;;;;;;;;27.00;25.00;;;;;;;;5013657;28;50957;-69
2022/03/23 13:05:31;;;;;;;;;26.50;24.75;;;;;;;;5012328;28;53995;-68
2022/03/23 13:07:57;;;;;;;;;22.50;22.50;;;;;;;;5013779;28;51000;-71
2022/03/23 13:10:24;;;;;;;;;25.00;23.75;;;;;;;;5011360;28;51071;-69
2022/03/23 13:12:50;;;;;;;;;29.50;26.75;;;;;;;;5013659;28;51200;-69
2022/03/23 13:15:17;;;;;;;;;33.00;30.75;;;;;;;;5013469;28;50985;-69
2022/03/23 13:17:43;;;;;;;;;22.00;21.75;;;;;;;;5013005;28;51170;-69
2022/03/23 13:20:13;;;;;;;;;22.50;22.50;;;;;;;;5013261;28;50965;-69
2022/03/23 13:22:39;;;;;;;;;25.50;24.00;;;;;;;;5013493;28;51333;-70
2022/03/23 13:25:04;;;;;;;;;19.50;18.25;;;;;;;;5011793;28;53002;-70
2022/03/23 13:27:30;;;;;;;;;18.75;18.75;;;;;;;;5013397;28;51018;-70
2022/03/23 13:30:02;;;;;;;;;28.75;27.50;;;;;;;;5013417;28;51436;-70
2022/03/23 13:32:36;;;;;;;;;28.00;25.00;;;;;;;;5016782;28;51362;-69
2022/03/23 13:35:01;;;;;;;;;29.50;27.75;;;;;;;;5013006;28;51757;-71
2022/03/23 13:37:26;;;;;;;;;24.25;23.50;;;;;;;;5011759;28;51059;-69
2022/03/23 13:39:52;;;;;;;;;25.25;24.50;;;;;;;;5013277;28;51188;-70
2022/03/23 13:45:06;;;;;;;;;26.50;23.75;;;;;;;;5012839;28;51061;-70
2022/03/23 13:47:32;;;;;;;;;23.50;19.50;;;;;;;;5012769;28;50962;-69
2022/03/23 13:49:58;;;;;;;;;26.50;25.75;;;;;;;;5010645;28;51026;-69
2022/03/23 13:52:25;;;;;;;;;30.00;29.25;;;;;;;;5012841;28;51297;-68
2022/03/23 13:54:53;;;;;;;;;27.25;26.50;;;;;;;;5011358;28;51077;-70
2022/03/23 13:57:18;;;;;;;;;22.00;20.75;;;;;;;;5011740;28;51073;-69
2022/03/23 13:59:46;;;;;;;;;24.25;24.00;;;;;;;;5011033;28;51428;-69
2022/03/23 14:02:16;;;;;;;;;31.25;29.00;;;;;;;;5013068;28;51231;-70
2022/03/23 14:04:42;;;;;;;;;29.50;27.25;;;;;;;;5012734;28;52940;-70
2022/03/23 14:07:08;;;;;;;;;26.50;24.75;;;;;;;;5011362;28;50918;-70
2022/03/23 14:09:37;;;;;;;;;27.50;27.00;;;;;;;;5012162;28;51049;-69
2022/03/23 14:12:05;;;;;;;;;27.50;27.25;;;;;;;;5012738;28;51325;-69
2022/03/23 14:14:37;;;;;;;;;29.50;29.00;;;;;;;;5012209;28;50981;-69
2022/03/23 14:17:03;;;;;;;;;33.00;31.00;;;;;;;;5011962;28;51194;-69
2022/03/23 14:19:30;;;;;;;;;30.00;29.00;;;;;;;;5012870;28;50961;-70
2022/03/23 14:21:56;;;;;;;;;26.50;24.50;;;;;;;;5013034;28;51006;-68
2022/03/23 14:24:24;;;;;;;;;31.00;28.50;;;;;;;;5012177;28;51963;-69
2022/03/23 14:26:49;;;;;;;;;33.75;29.75;;;;;;;;5012131;28;51112;-69
2022/03/23 14:29:20;;;;;;;;;26.50;25.50;;;;;;;;5012496;28;51037;-70
2022/03/23 14:31:46;;;;;;;;;28.25;27.50;;;;;;;;5012222;28;51233;-69
2022/03/23 14:34:11;;;;;;;;;25.75;24.00;;;;;;;;5010576;28;53264;-70
2022/03/23 14:36:37;;;;;;;;;22.25;21.50;;;;;;;;5012289;28;51212;-68
2022/03/23 14:39:14;;;;;;;;;28.25;27.25;;;;;;;;5010964;28;50939;-69
2022/03/23 14:41:53;;;;;;;;;32.00;29.25;;;;;;;;5010880;28;51128;-69
2022/03/23 14:44:30;;;;;;;;;24.75;23.00;;;;;;;;5011992;28;51072;-69
2022/03/23 14:46:59;;;;;;;;;30.75;29.25;;;;;;;;5011432;28;51184;-70